sensor_id;sensor_type;location;lat;lon;timestamp;temperature;humidity
3919;DHT22;1974;48.670;8.994;2023-05-16T00:02:06;13.00;99.90
3919;DHT22;1974;48.670;8.994;2023-05-16T00:04:34;13.00;99.90
3919;DHT22;1974;48.670;8.994;2023-05-16T00:07:01;12.90;99.90
3919;DHT22;1974;48.670;8.994;2023-05-16T00:09:29;12.90;99.90
3919;DHT22;1974;48.670;8.994;2023-05-16T00:11:56;12.90;99.90
3919;DHT22;1974;48.670;8.994;2023-05-16T00:14:23;12.90;99.90
3919;DHT22;1974;48.670;8.994;2023-05-16T00:16:51;12.90;99.90
3919;DHT22;1974;48.670;8.994;2023-05-16T00:19:18;12.90;99.90
3919;DHT22;1974;48.670;8.994;2023-05-16T00:21:45;12.90;99.90
3919;DHT22;1974;48.670;8.994;2023-05-16T00:24:12;12.90;99.90
3919;DHT22;1974;48.670;8.994;2023-05-16T00:26:40;12.80;99.90
3919;DHT22;1974;48.670;8.994;2023-05-16T00:29:07;12.80;99.90
3919;DHT22;1974;48.670;8.994;2023-05-16T00:31:34;12.80;99.90
3919;DHT22;1974;48.670;8.994;2023-05-16T00:34:00;12.80;99.90
3919;DHT22;1974;48.670;8.994;2023-05-16T00:36:27;12.80;99.90
3919;DHT22;1974;48.670;8.994;2023-05-16T00:38:56;12.70;99.90
3919;DHT22;1974;48.670;8.994;2023-05-16T00:41:22;12.80;99.90
3919;DHT22;1974;48.670;8.994;2023-05-16T00:43:51;12.70;99.90
3919;DHT22;1974;48.670;8.994;2023-05-16T00:46:18;12.70;99.90
3919;DHT22;1974;48.670;8.994;2023-05-16T00:48:45;12.70;99.90
3919;DHT22;1974;48.670;8.994;2023-05-16T00:51:12;12.60;99.90
3919;DHT22;1974;48.670;8.994;2023-05-16T00:53:39;12.60;99.90
3919;DHT22;1974;48.670;8.994;2023-05-16T00:56:05;12.60;99.90
3919;DHT22;1974;48.670;8.994;2023-05-16T00:58:33;12.50;99.90
3919;DHT22;1974;48.670;8.994;2023-05-16T01:01:01;12.50;99.90
3919;DHT22;1974;48.670;8.994;2023-05-16T01:03:29;12.50;99.90
3919;DHT22;1974;48.670;8.994;2023-05-16T01:05:57;12.60;99.90
3919;DHT22;1974;48.670;8.994;2023-05-16T01:08:24;12.50;99.90
3919;DHT22;1974;48.670;8.994;2023-05-16T01:10:58;12.50;99.90
3919;DHT22;1974;48.670;8.994;2023-05-16T01:13:32;12.50;99.90
3919;DHT22;1974;48.670;8.994;2023-05-16T01:16:09;12.50;99.90
3919;DHT22;1974;48.670;8.994;2023-05-16T01:18:41;12.40;99.90
3919;DHT22;1974;48.670;8.994;2023-05-16T01:21:18;12.40;99.90
3919;DHT22;1974;48.670;8.994;2023-05-16T01:23:55;12.40;99.90
3919;DHT22;1974;48.670;8.994;2023-05-16T01:26:26;12.40;99.90
3919;DHT22;1974;48.670;8.994;2023-05-16T01:28:55;12.40;99.90
3919;DHT22;1974;48.670;8.994;2023-05-16T01:31:22;12.40;99.90
3919;DHT22;1974;48.670;8.994;2023-05-16T01:33:49;12.40;99.90
3919;DHT22;1974;48.670;8.994;2023-05-16T01:36:23;12.40;99.90
3919;DHT22;1974;48.670;8.994;2023-05-16T01:39:00;12.40;99.90
3919;DHT22;1974;48.670;8.994;2023-05-16T01:41:40;12.40;99.90
3919;DHT22;1974;48.670;8.994;2023-05-16T01:44:16;12.40;99.90
3919;DHT22;1974;48.670;8.994;2023-05-16T01:46:45;12.40;99.90
3919;DHT22;1974;48.670;8.994;2023-05-16T01:49:15;12.40;99.90
3919;DHT22;1974;48.670;8.994;2023-05-16T01:51:49;12.30;99.90
3919;DHT22;1974;48.670;8.994;2023-05-16T01:54:18;12.30;99.90
3919;DHT22;1974;48.670;8.994;2023-05-16T01:56:50;12.30;99.90
3919;DHT22;1974;48.670;8.994;2023-05-16T01:59:19;12.20;99.90
3919;DHT22;1974;48.670;8.994;2023-05-16T02:01:47;12.20;99.90
3919;DHT22;1974;48.670;8.994;2023-05-16T02:04:13;12.20;99.90
3919;DHT22;1974;48.670;8.994;2023-05-16T02:06:40;12.10;99.90
3919;DHT22;1974;48.670;8.994;2023-05-16T02:09:07;12.10;99.90
3919;DHT22;1974;48.670;8.994;2023-05-16T02:11:34;12.10;99.90
3919;DHT22;1974;48.670;8.994;2023-05-16T02:14:02;12.00;99.90
3919;DHT22;1974;48.670;8.994;2023-05-16T02:16:29;12.00;99.90
3919;DHT22;1974;48.670;8.994;2023-05-16T02:18:56;12.00;99.90
3919;DHT22;1974;48.670;8.994;2023-05-16T02:21:23;11.90;99.90
3919;DHT22;1974;48.670;8.994;2023-05-16T02:23:49;11.80;99.90
3919;DHT22;1974;48.670;8.994;2023-05-16T02:26:16;11.80;99.90
3919;DHT22;1974;48.670;8.994;2023-05-16T02:28:43;11.80;99.90
3919;DHT22;1974;48.670;8.994;2023-05-16T02:31:11;11.70;99.90
3919;DHT22;1974;48.670;8.994;2023-05-16T02:33:38;11.70;99.90
3919;DHT22;1974;48.670;8.994;2023-05-16T02:36:06;11.70;99.90
3919;DHT22;1974;48.670;8.994;2023-05-16T02:38:33;11.70;99.90
3919;DHT22;1974;48.670;8.994;2023-05-16T02:41:00;11.70;99.90
3919;DHT22;1974;48.670;8.994;2023-05-16T02:43:27;11.70;99.90
3919;DHT22;1974;48.670;8.994;2023-05-16T02:45:53;11.70;99.90
3919;DHT22;1974;48.670;8.994;2023-05-16T02:48:21;11.70;99.90
3919;DHT22;1974;48.670;8.994;2023-05-16T02:50:48;11.70;99.90
3919;DHT22;1974;48.670;8.994;2023-05-16T02:53:15;11.70;99.90
3919;DHT22;1974;48.670;8.994;2023-05-16T02:55:42;11.70;99.90
3919;DHT22;1974;48.670;8.994;2023-05-16T02:58:08;11.70;99.90
3919;DHT22;1974;48.670;8.994;2023-05-16T03:00:35;11.60;99.90
3919;DHT22;1974;48.670;8.994;2023-05-16T03:03:02;11.70;99.90
3919;DHT22;1974;48.670;8.994;2023-05-16T03:05:30;11.60;99.90
3919;DHT22;1974;48.670;8.994;2023-05-16T03:07:57;11.70;99.90
3919;DHT22;1974;48.670;8.994;2023-05-16T03:10:24;11.70;99.90
3919;DHT22;1974;48.670;8.994;2023-05-16T03:12:50;11.70;99.90
3919;DHT22;1974;48.670;8.994;2023-05-16T03:15:17;11.70;99.90
3919;DHT22;1974;48.670;8.994;2023-05-16T03:17:44;11.70;99.90
3919;DHT22;1974;48.670;8.994;2023-05-16T03:20:11;11.70;99.90
3919;DHT22;1974;48.670;8.994;2023-05-16T03:22:39;11.60;99.90
3919;DHT22;1974;48.670;8.994;2023-05-16T03:25:06;11.60;99.90
3919;DHT22;1974;48.670;8.994;2023-05-16T03:27:33;11.60;99.90
3919;DHT22;1974;48.670;8.994;2023-05-16T03:30:00;11.70;99.90
3919;DHT22;1974;48.670;8.994;2023-05-16T03:32:27;11.60;99.90
3919;DHT22;1974;48.670;8.994;2023-05-16T03:34:54;11.60;99.90
3919;DHT22;1974;48.670;8.994;2023-05-16T03:37:20;11.70;99.90
3919;DHT22;1974;48.670;8.994;2023-05-16T03:39:48;11.70;99.90
3919;DHT22;1974;48.670;8.994;2023-05-16T03:42:15;11.70;99.90
3919;DHT22;1974;48.670;8.994;2023-05-16T03:44:42;11.70;99.90
3919;DHT22;1974;48.670;8.994;2023-05-16T03:47:09;11.70;99.90
3919;DHT22;1974;48.670;8.994;2023-05-16T03:49:36;11.70;99.90
3919;DHT22;1974;48.670;8.994;2023-05-16T03:52:03;11.70;99.90
3919;DHT22;1974;48.670;8.994;2023-05-16T03:54:30;11.70;99.90
3919;DHT22;1974;48.670;8.994;2023-05-16T03:56:58;11.70;99.90
3919;DHT22;1974;48.670;8.994;2023-05-16T03:59:25;11.70;99.90
3919;DHT22;1974;48.670;8.994;2023-05-16T04:01:52;11.70;99.90
3919;DHT22;1974;48.670;8.994;2023-05-16T04:04:18;11.80;99.90
3919;DHT22;1974;48.670;8.994;2023-05-16T04:06:45;11.80;99.90
3919;DHT22;1974;48.670;8.994;2023-05-16T04:09:12;11.70;99.90
3919;DHT22;1974;48.670;8.994;2023-05-16T04:11:38;11.80;99.90
3919;DHT22;1974;48.670;8.994;2023-05-16T04:14:07;11.80;99.90
3919;DHT22;1974;48.670;8.994;2023-05-16T04:16:33;11.90;99.90
3919;DHT22;1974;48.670;8.994;2023-05-16T04:19:00;11.90;99.90
3919;DHT22;1974;48.670;8.994;2023-05-16T04:21:28;11.90;99.90
3919;DHT22;1974;48.670;8.994;2023-05-16T04:23:55;11.90;99.90
3919;DHT22;1974;48.670;8.994;2023-05-16T04:26:22;11.90;99.90
3919;DHT22;1974;48.670;8.994;2023-05-16T04:28:49;11.90;99.90
3919;DHT22;1974;48.670;8.994;2023-05-16T04:31:17;11.90;99.90
3919;DHT22;1974;48.670;8.994;2023-05-16T04:33:44;11.90;99.90
3919;DHT22;1974;48.670;8.994;2023-05-16T04:36:11;12.00;99.90
3919;DHT22;1974;48.670;8.994;2023-05-16T04:38:38;11.90;99.90
3919;DHT22;1974;48.670;8.994;2023-05-16T04:41:04;11.90;99.90
3919;DHT22;1974;48.670;8.994;2023-05-16T04:43:31;11.90;99.90
3919;DHT22;1974;48.670;8.994;2023-05-16T04:45:58;12.00;99.90
3919;DHT22;1974;48.670;8.994;2023-05-16T04:48:26;12.00;99.90
3919;DHT22;1974;48.670;8.994;2023-05-16T04:50:53;12.00;99.90
3919;DHT22;1974;48.670;8.994;2023-05-16T04:53:20;12.00;99.90
3919;DHT22;1974;48.670;8.994;2023-05-16T04:55:47;12.00;99.90
3919;DHT22;1974;48.670;8.994;2023-05-16T04:58:13;12.00;99.90
3919;DHT22;1974;48.670;8.994;2023-05-16T05:00:40;12.00;99.90
3919;DHT22;1974;48.670;8.994;2023-05-16T05:03:07;12.00;99.90
3919;DHT22;1974;48.670;8.994;2023-05-16T05:05:35;12.00;99.90
3919;DHT22;1974;48.670;8.994;2023-05-16T05:08:02;12.10;99.90
3919;DHT22;1974;48.670;8.994;2023-05-16T05:10:29;12.00;99.90
3919;DHT22;1974;48.670;8.994;2023-05-16T05:12:56;12.10;99.90
3919;DHT22;1974;48.670;8.994;2023-05-16T05:15:23;12.00;99.90
3919;DHT22;1974;48.670;8.994;2023-05-16T05:17:50;12.00;99.90
3919;DHT22;1974;48.670;8.994;2023-05-16T05:20:17;12.00;99.90
3919;DHT22;1974;48.670;8.994;2023-05-16T05:22:45;12.00;99.90
3919;DHT22;1974;48.670;8.994;2023-05-16T05:25:13;12.00;99.90
3919;DHT22;1974;48.670;8.994;2023-05-16T05:27:39;12.00;99.90
3919;DHT22;1974;48.670;8.994;2023-05-16T05:30:07;12.00;99.90
3919;DHT22;1974;48.670;8.994;2023-05-16T05:32:34;12.00;99.90
3919;DHT22;1974;48.670;8.994;2023-05-16T05:35:01;12.10;99.90
3919;DHT22;1974;48.670;8.994;2023-05-16T05:37:28;12.10;99.90
3919;DHT22;1974;48.670;8.994;2023-05-16T05:39:56;12.10;99.90
3919;DHT22;1974;48.670;8.994;2023-05-16T05:42:23;12.20;99.90
3919;DHT22;1974;48.670;8.994;2023-05-16T05:44:50;12.10;99.90
3919;DHT22;1974;48.670;8.994;2023-05-16T05:47:17;12.20;99.90
3919;DHT22;1974;48.670;8.994;2023-05-16T05:49:44;12.20;99.90
3919;DHT22;1974;48.670;8.994;2023-05-16T05:52:10;12.10;99.90
3919;DHT22;1974;48.670;8.994;2023-05-16T05:54:37;12.10;99.90
3919;DHT22;1974;48.670;8.994;2023-05-16T05:57:05;12.10;99.90
3919;DHT22;1974;48.670;8.994;2023-05-16T05:59:32;12.10;99.90
3919;DHT22;1974;48.670;8.994;2023-05-16T06:01:59;12.10;99.90
3919;DHT22;1974;48.670;8.994;2023-05-16T06:04:26;12.10;99.90
3919;DHT22;1974;48.670;8.994;2023-05-16T06:06:52;12.20;99.90
3919;DHT22;1974;48.670;8.994;2023-05-16T06:09:20;12.20;99.90
3919;DHT22;1974;48.670;8.994;2023-05-16T06:11:47;12.20;99.90
3919;DHT22;1974;48.670;8.994;2023-05-16T06:14:15;12.10;99.90
3919;DHT22;1974;48.670;8.994;2023-05-16T06:16:42;12.20;99.90
3919;DHT22;1974;48.670;8.994;2023-05-16T06:19:09;12.20;99.90
3919;DHT22;1974;48.670;8.994;2023-05-16T06:21:36;12.20;99.90
3919;DHT22;1974;48.670;8.994;2023-05-16T06:24:03;12.20;99.90
3919;DHT22;1974;48.670;8.994;2023-05-16T06:26:31;12.20;99.90
3919;DHT22;1974;48.670;8.994;2023-05-16T06:28:58;12.20;99.90
3919;DHT22;1974;48.670;8.994;2023-05-16T06:31:27;12.20;99.90
3919;DHT22;1974;48.670;8.994;2023-05-16T06:33:53;12.30;99.90
3919;DHT22;1974;48.670;8.994;2023-05-16T06:36:20;12.30;99.90
3919;DHT22;1974;48.670;8.994;2023-05-16T06:38:48;12.40;99.90
3919;DHT22;1974;48.670;8.994;2023-05-16T06:41:15;12.50;99.90
3919;DHT22;1974;48.670;8.994;2023-05-16T06:43:42;12.50;99.90
3919;DHT22;1974;48.670;8.994;2023-05-16T06:46:09;12.50;99.90
3919;DHT22;1974;48.670;8.994;2023-05-16T06:48:37;12.60;99.90
3919;DHT22;1974;48.670;8.994;2023-05-16T06:51:04;12.60;99.90
3919;DHT22;1974;48.670;8.994;2023-05-16T06:53:30;12.60;99.90
3919;DHT22;1974;48.670;8.994;2023-05-16T06:55:57;12.50;99.90
3919;DHT22;1974;48.670;8.994;2023-05-16T06:58:24;12.50;99.90
3919;DHT22;1974;48.670;8.994;2023-05-16T07:00:50;12.40;99.90
3919;DHT22;1974;48.670;8.994;2023-05-16T07:03:17;12.40;99.90
3919;DHT22;1974;48.670;8.994;2023-05-16T07:05:45;12.40;99.90
3919;DHT22;1974;48.670;8.994;2023-05-16T07:08:12;12.40;99.90
3919;DHT22;1974;48.670;8.994;2023-05-16T07:10:39;12.40;99.90
3919;DHT22;1974;48.670;8.994;2023-05-16T07:13:07;12.40;99.90
3919;DHT22;1974;48.670;8.994;2023-05-16T07:15:34;12.30;99.90
3919;DHT22;1974;48.670;8.994;2023-05-16T07:18:00;12.30;99.90
3919;DHT22;1974;48.670;8.994;2023-05-16T07:20:27;12.30;99.90
3919;DHT22;1974;48.670;8.994;2023-05-16T07:22:55;12.30;99.90
3919;DHT22;1974;48.670;8.994;2023-05-16T07:25:22;12.20;99.90
3919;DHT22;1974;48.670;8.994;2023-05-16T07:27:49;12.20;99.90
3919;DHT22;1974;48.670;8.994;2023-05-16T07:30:16;12.20;99.90
3919;DHT22;1974;48.670;8.994;2023-05-16T07:32:43;12.20;99.90
3919;DHT22;1974;48.670;8.994;2023-05-16T07:35:09;12.20;99.90
3919;DHT22;1974;48.670;8.994;2023-05-16T07:37:37;12.20;99.90
3919;DHT22;1974;48.670;8.994;2023-05-16T07:40:08;12.20;99.90
3919;DHT22;1974;48.670;8.994;2023-05-16T07:42:35;12.20;99.90
3919;DHT22;1974;48.670;8.994;2023-05-16T07:45:03;12.30;99.90
3919;DHT22;1974;48.670;8.994;2023-05-16T07:47:31;12.30;99.90
3919;DHT22;1974;48.670;8.994;2023-05-16T07:49:58;12.30;99.90
3919;DHT22;1974;48.670;8.994;2023-05-16T07:52:25;12.40;99.90
3919;DHT22;1974;48.670;8.994;2023-05-16T07:54:52;12.40;99.90
3919;DHT22;1974;48.670;8.994;2023-05-16T07:57:20;12.60;99.90
3919;DHT22;1974;48.670;8.994;2023-05-16T07:59:47;12.60;99.90
3919;DHT22;1974;48.670;8.994;2023-05-16T08:02:13;12.50;99.90
3919;DHT22;1974;48.670;8.994;2023-05-16T08:04:41;12.50;99.90
3919;DHT22;1974;48.670;8.994;2023-05-16T08:07:08;12.50;99.90
3919;DHT22;1974;48.670;8.994;2023-05-16T08:09:35;12.40;99.90
3919;DHT22;1974;48.670;8.994;2023-05-16T08:12:02;12.40;99.90
3919;DHT22;1974;48.670;8.994;2023-05-16T08:14:30;12.40;99.90
3919;DHT22;1974;48.670;8.994;2023-05-16T08:16:57;12.50;99.90
3919;DHT22;1974;48.670;8.994;2023-05-16T08:19:24;12.50;99.90
3919;DHT22;1974;48.670;8.994;2023-05-16T08:21:51;12.50;99.90
3919;DHT22;1974;48.670;8.994;2023-05-16T08:24:18;12.60;99.90
3919;DHT22;1974;48.670;8.994;2023-05-16T08:26:45;12.60;99.90
3919;DHT22;1974;48.670;8.994;2023-05-16T08:29:12;12.60;99.90
3919;DHT22;1974;48.670;8.994;2023-05-16T08:31:40;12.50;99.90
3919;DHT22;1974;48.670;8.994;2023-05-16T08:34:07;12.50;99.90
3919;DHT22;1974;48.670;8.994;2023-05-16T08:36:34;12.50;99.90
3919;DHT22;1974;48.670;8.994;2023-05-16T08:39:02;12.50;99.90
3919;DHT22;1974;48.670;8.994;2023-05-16T08:41:29;12.50;99.90
3919;DHT22;1974;48.670;8.994;2023-05-16T08:43:56;12.40;99.90
3919;DHT22;1974;48.670;8.994;2023-05-16T08:46:23;12.40;99.90
3919;DHT22;1974;48.670;8.994;2023-05-16T08:48:52;12.30;99.90
3919;DHT22;1974;48.670;8.994;2023-05-16T08:51:20;12.20;99.90
3919;DHT22;1974;48.670;8.994;2023-05-16T08:53:51;12.20;99.90
3919;DHT22;1974;48.670;8.994;2023-05-16T08:56:20;12.10;99.90
3919;DHT22;1974;48.670;8.994;2023-05-16T08:58:48;12.10;99.90
3919;DHT22;1974;48.670;8.994;2023-05-16T09:01:16;12.10;99.90
3919;DHT22;1974;48.670;8.994;2023-05-16T09:03:45;12.10;99.90
3919;DHT22;1974;48.670;8.994;2023-05-16T09:06:14;12.20;99.90
3919;DHT22;1974;48.670;8.994;2023-05-16T09:08:41;12.30;99.90
3919;DHT22;1974;48.670;8.994;2023-05-16T09:11:08;12.30;99.90
3919;DHT22;1974;48.670;8.994;2023-05-16T09:13:36;12.30;99.90
3919;DHT22;1974;48.670;8.994;2023-05-16T09:16:10;12.30;99.90
3919;DHT22;1974;48.670;8.994;2023-05-16T09:18:38;12.30;99.90
3919;DHT22;1974;48.670;8.994;2023-05-16T09:21:05;12.30;99.90
3919;DHT22;1974;48.670;8.994;2023-05-16T09:23:34;12.40;99.90
3919;DHT22;1974;48.670;8.994;2023-05-16T09:26:01;12.40;99.90
3919;DHT22;1974;48.670;8.994;2023-05-16T09:28:29;12.40;99.90
3919;DHT22;1974;48.670;8.994;2023-05-16T09:30:56;12.40;99.90
3919;DHT22;1974;48.670;8.994;2023-05-16T09:33:26;12.40;99.90
3919;DHT22;1974;48.670;8.994;2023-05-16T09:35:57;12.50;99.90
3919;DHT22;1974;48.670;8.994;2023-05-16T09:38:25;12.50;99.90
3919;DHT22;1974;48.670;8.994;2023-05-16T09:40:54;12.60;99.90
3919;DHT22;1974;48.670;8.994;2023-05-16T09:43:23;12.70;99.90
3919;DHT22;1974;48.670;8.994;2023-05-16T09:45:50;12.80;99.90
3919;DHT22;1974;48.670;8.994;2023-05-16T09:48:18;12.90;99.90
3919;DHT22;1974;48.670;8.994;2023-05-16T09:50:47;12.90;99.90
3919;DHT22;1974;48.670;8.994;2023-05-16T09:53:15;12.90;99.90
3919;DHT22;1974;48.670;8.994;2023-05-16T09:55:42;12.90;99.90
3919;DHT22;1974;48.670;8.994;2023-05-16T09:58:10;12.90;99.90
3919;DHT22;1974;48.670;8.994;2023-05-16T10:00:37;13.00;99.90
3919;DHT22;1974;48.670;8.994;2023-05-16T10:03:05;13.10;99.90
3919;DHT22;1974;48.670;8.994;2023-05-16T10:05:33;13.30;99.90
3919;DHT22;1974;48.670;8.994;2023-05-16T10:08:02;13.40;99.90
3919;DHT22;1974;48.670;8.994;2023-05-16T10:10:29;13.60;99.90
3919;DHT22;1974;48.670;8.994;2023-05-16T10:12:57;13.70;99.90
3919;DHT22;1974;48.670;8.994;2023-05-16T10:15:27;13.70;99.90
3919;DHT22;1974;48.670;8.994;2023-05-16T10:17:55;13.60;99.90
3919;DHT22;1974;48.670;8.994;2023-05-16T10:20:24;13.60;99.90
3919;DHT22;1974;48.670;8.994;2023-05-16T10:22:54;13.50;99.90
3919;DHT22;1974;48.670;8.994;2023-05-16T10:25:27;13.60;99.90
3919;DHT22;1974;48.670;8.994;2023-05-16T10:27:55;13.70;99.90
3919;DHT22;1974;48.670;8.994;2023-05-16T10:30:22;13.80;99.90
3919;DHT22;1974;48.670;8.994;2023-05-16T10:32:50;13.80;99.90
3919;DHT22;1974;48.670;8.994;2023-05-16T10:35:19;13.70;99.90
3919;DHT22;1974;48.670;8.994;2023-05-16T10:37:46;13.60;99.90
3919;DHT22;1974;48.670;8.994;2023-05-16T10:40:14;13.50;99.90
3919;DHT22;1974;48.670;8.994;2023-05-16T10:42:43;13.40;99.90
3919;DHT22;1974;48.670;8.994;2023-05-16T10:45:20;13.30;99.90
3919;DHT22;1974;48.670;8.994;2023-05-16T10:47:53;13.20;99.90
3919;DHT22;1974;48.670;8.994;2023-05-16T10:50:34;13.10;99.90
3919;DHT22;1974;48.670;8.994;2023-05-16T10:53:14;12.90;99.90
3919;DHT22;1974;48.670;8.994;2023-05-16T10:55:48;12.80;99.90
3919;DHT22;1974;48.670;8.994;2023-05-16T10:58:21;12.90;99.90
3919;DHT22;1974;48.670;8.994;2023-05-16T11:00:48;13.00;99.90
3919;DHT22;1974;48.670;8.994;2023-05-16T11:03:22;13.00;99.90
3919;DHT22;1974;48.670;8.994;2023-05-16T11:05:53;13.00;99.90
3919;DHT22;1974;48.670;8.994;2023-05-16T11:08:25;13.00;99.90
3919;DHT22;1974;48.670;8.994;2023-05-16T11:13:55;13.10;99.90
3919;DHT22;1974;48.670;8.994;2023-05-16T11:16:26;13.10;99.90
3919;DHT22;1974;48.670;8.994;2023-05-16T11:18:54;13.10;99.90
3919;DHT22;1974;48.670;8.994;2023-05-16T11:24:29;13.10;99.90
3919;DHT22;1974;48.670;8.994;2023-05-16T11:26:56;13.10;99.90
3919;DHT22;1974;48.670;8.994;2023-05-16T11:29:24;13.00;99.90
3919;DHT22;1974;48.670;8.994;2023-05-16T11:31:52;13.00;99.90
3919;DHT22;1974;48.670;8.994;2023-05-16T11:34:20;13.00;99.90
3919;DHT22;1974;48.670;8.994;2023-05-16T11:36:47;12.90;99.90
3919;DHT22;1974;48.670;8.994;2023-05-16T11:39:14;12.90;99.90
3919;DHT22;1974;48.670;8.994;2023-05-16T11:41:41;12.80;99.90
3919;DHT22;1974;48.670;8.994;2023-05-16T11:44:10;12.60;99.90
3919;DHT22;1974;48.670;8.994;2023-05-16T11:46:38;12.60;99.90
3919;DHT22;1974;48.670;8.994;2023-05-16T11:49:05;12.60;99.90
3919;DHT22;1974;48.670;8.994;2023-05-16T11:51:36;12.50;99.90
3919;DHT22;1974;48.670;8.994;2023-05-16T11:54:04;12.50;99.90
3919;DHT22;1974;48.670;8.994;2023-05-16T11:56:30;12.50;99.90
3919;DHT22;1974;48.670;8.994;2023-05-16T11:58:58;12.40;99.90
3919;DHT22;1974;48.670;8.994;2023-05-16T12:01:31;12.50;99.90
3919;DHT22;1974;48.670;8.994;2023-05-16T12:03:58;12.50;99.90
3919;DHT22;1974;48.670;8.994;2023-05-16T12:06:26;12.40;99.90
3919;DHT22;1974;48.670;8.994;2023-05-16T12:08:56;12.40;99.90
3919;DHT22;1974;48.670;8.994;2023-05-16T12:11:23;12.40;99.90
3919;DHT22;1974;48.670;8.994;2023-05-16T12:13:50;12.40;99.90
3919;DHT22;1974;48.670;8.994;2023-05-16T12:16:18;12.40;99.90
3919;DHT22;1974;48.670;8.994;2023-05-16T12:18:46;12.40;99.90
3919;DHT22;1974;48.670;8.994;2023-05-16T12:21:12;12.40;99.90
3919;DHT22;1974;48.670;8.994;2023-05-16T12:23:41;12.40;99.90
3919;DHT22;1974;48.670;8.994;2023-05-16T12:26:09;12.50;99.90
3919;DHT22;1974;48.670;8.994;2023-05-16T12:28:36;12.60;99.90
3919;DHT22;1974;48.670;8.994;2023-05-16T12:31:10;12.60;99.90
3919;DHT22;1974;48.670;8.994;2023-05-16T12:33:37;12.60;99.90
3919;DHT22;1974;48.670;8.994;2023-05-16T12:36:04;12.60;99.90
3919;DHT22;1974;48.670;8.994;2023-05-16T12:38:31;12.50;99.90
3919;DHT22;1974;48.670;8.994;2023-05-16T12:40:58;12.40;99.90
3919;DHT22;1974;48.670;8.994;2023-05-16T12:43:26;12.40;99.90
3919;DHT22;1974;48.670;8.994;2023-05-16T12:45:54;12.40;99.90
3919;DHT22;1974;48.670;8.994;2023-05-16T12:48:22;12.40;99.90
3919;DHT22;1974;48.670;8.994;2023-05-16T12:50:49;12.30;99.90
3919;DHT22;1974;48.670;8.994;2023-05-16T12:53:17;12.20;99.90
3919;DHT22;1974;48.670;8.994;2023-05-16T12:55:44;12.10;99.90
3919;DHT22;1974;48.670;8.994;2023-05-16T12:58:11;12.00;99.90
3919;DHT22;1974;48.670;8.994;2023-05-16T13:00:39;11.80;99.90
3919;DHT22;1974;48.670;8.994;2023-05-16T13:03:05;11.70;99.90
3919;DHT22;1974;48.670;8.994;2023-05-16T13:05:32;11.60;99.90
3919;DHT22;1974;48.670;8.994;2023-05-16T13:07:59;11.50;99.90
3919;DHT22;1974;48.670;8.994;2023-05-16T13:10:27;11.40;99.90
3919;DHT22;1974;48.670;8.994;2023-05-16T13:12:53;11.40;99.90
3919;DHT22;1974;48.670;8.994;2023-05-16T13:15:22;11.30;99.90
3919;DHT22;1974;48.670;8.994;2023-05-16T13:17:50;11.20;99.90
3919;DHT22;1974;48.670;8.994;2023-05-16T13:20:17;11.20;99.90
3919;DHT22;1974;48.670;8.994;2023-05-16T13:22:45;11.20;99.90
3919;DHT22;1974;48.670;8.994;2023-05-16T13:25:12;11.20;99.90
3919;DHT22;1974;48.670;8.994;2023-05-16T13:27:39;11.20;99.90
3919;DHT22;1974;48.670;8.994;2023-05-16T13:30:06;11.30;99.90
3919;DHT22;1974;48.670;8.994;2023-05-16T13:32:33;11.40;99.90
3919;DHT22;1974;48.670;8.994;2023-05-16T13:35:01;11.40;99.90
3919;DHT22;1974;48.670;8.994;2023-05-16T13:37:28;11.50;99.90
3919;DHT22;1974;48.670;8.994;2023-05-16T13:39:55;11.60;99.90
3919;DHT22;1974;48.670;8.994;2023-05-16T13:42:22;11.60;99.90
3919;DHT22;1974;48.670;8.994;2023-05-16T13:44:49;11.60;99.90
3919;DHT22;1974;48.670;8.994;2023-05-16T13:47:15;11.70;99.90
3919;DHT22;1974;48.670;8.994;2023-05-16T13:49:42;11.70;99.90
3919;DHT22;1974;48.670;8.994;2023-05-16T13:52:10;11.60;99.90
3919;DHT22;1974;48.670;8.994;2023-05-16T13:54:37;11.80;99.90
3919;DHT22;1974;48.670;8.994;2023-05-16T13:57:05;11.80;99.90
3919;DHT22;1974;48.670;8.994;2023-05-16T13:59:32;11.70;99.90
3919;DHT22;1974;48.670;8.994;2023-05-16T14:01:59;11.70;99.90
3919;DHT22;1974;48.670;8.994;2023-05-16T14:04:26;11.80;99.90
3919;DHT22;1974;48.670;8.994;2023-05-16T14:06:52;11.70;99.90
3919;DHT22;1974;48.670;8.994;2023-05-16T14:09:22;11.80;99.90
3919;DHT22;1974;48.670;8.994;2023-05-16T14:11:48;11.80;99.90
3919;DHT22;1974;48.670;8.994;2023-05-16T14:14:15;11.80;99.90
3919;DHT22;1974;48.670;8.994;2023-05-16T14:16:42;11.80;99.90
3919;DHT22;1974;48.670;8.994;2023-05-16T14:19:10;11.80;99.90
3919;DHT22;1974;48.670;8.994;2023-05-16T14:21:37;11.80;99.90
3919;DHT22;1974;48.670;8.994;2023-05-16T14:24:05;11.90;99.90
3919;DHT22;1974;48.670;8.994;2023-05-16T14:26:33;11.90;99.90
3919;DHT22;1974;48.670;8.994;2023-05-16T14:29:00;12.00;99.90
3919;DHT22;1974;48.670;8.994;2023-05-16T14:31:27;12.00;99.90
3919;DHT22;1974;48.670;8.994;2023-05-16T14:33:53;12.00;99.90
3919;DHT22;1974;48.670;8.994;2023-05-16T14:36:20;12.10;99.90
3919;DHT22;1974;48.670;8.994;2023-05-16T14:38:47;12.10;99.90
3919;DHT22;1974;48.670;8.994;2023-05-16T14:41:14;12.20;99.90
3919;DHT22;1974;48.670;8.994;2023-05-16T14:43:43;12.20;99.90
3919;DHT22;1974;48.670;8.994;2023-05-16T14:46:10;12.20;99.90
3919;DHT22;1974;48.670;8.994;2023-05-16T14:48:37;12.40;99.90
3919;DHT22;1974;48.670;8.994;2023-05-16T14:51:03;12.40;99.90
3919;DHT22;1974;48.670;8.994;2023-05-16T14:53:30;12.50;99.90
3919;DHT22;1974;48.670;8.994;2023-05-16T14:55:57;12.50;99.90
3919;DHT22;1974;48.670;8.994;2023-05-16T14:58:24;12.50;99.90
3919;DHT22;1974;48.670;8.994;2023-05-16T15:00:52;12.60;99.90
3919;DHT22;1974;48.670;8.994;2023-05-16T15:03:19;12.60;99.90
3919;DHT22;1974;48.670;8.994;2023-05-16T15:05:46;12.60;99.90
3919;DHT22;1974;48.670;8.994;2023-05-16T15:08:13;12.60;99.90
3919;DHT22;1974;48.670;8.994;2023-05-16T15:10:39;12.60;99.90
3919;DHT22;1974;48.670;8.994;2023-05-16T15:13:06;12.60;99.90
3919;DHT22;1974;48.670;8.994;2023-05-16T15:15:33;12.70;99.90
3919;DHT22;1974;48.670;8.994;2023-05-16T15:18:04;12.60;99.90
3919;DHT22;1974;48.670;8.994;2023-05-16T15:20:31;12.60;99.90
3919;DHT22;1974;48.670;8.994;2023-05-16T15:22:57;12.50;99.90
3919;DHT22;1974;48.670;8.994;2023-05-16T15:25:24;12.50;99.90
3919;DHT22;1974;48.670;8.994;2023-05-16T15:27:51;12.50;99.90
3919;DHT22;1974;48.670;8.994;2023-05-16T15:30:17;12.60;99.90
3919;DHT22;1974;48.670;8.994;2023-05-16T15:32:44;12.70;99.90
3919;DHT22;1974;48.670;8.994;2023-05-16T15:35:12;12.80;99.90
3919;DHT22;1974;48.670;8.994;2023-05-16T15:37:39;12.90;99.90
3919;DHT22;1974;48.670;8.994;2023-05-16T15:40:07;13.00;99.90
3919;DHT22;1974;48.670;8.994;2023-05-16T15:42:35;13.10;99.90
3919;DHT22;1974;48.670;8.994;2023-05-16T15:45:02;13.20;99.90
3919;DHT22;1974;48.670;8.994;2023-05-16T15:47:29;13.20;99.90
3919;DHT22;1974;48.670;8.994;2023-05-16T15:49:56;13.20;99.90
3919;DHT22;1974;48.670;8.994;2023-05-16T15:52:24;13.30;99.90
3919;DHT22;1974;48.670;8.994;2023-05-16T15:54:51;13.30;99.90
3919;DHT22;1974;48.670;8.994;2023-05-16T15:57:20;13.20;99.90
3919;DHT22;1974;48.670;8.994;2023-05-16T15:59:47;13.20;99.90
3919;DHT22;1974;48.670;8.994;2023-05-16T16:02:14;13.10;99.90
3919;DHT22;1974;48.670;8.994;2023-05-16T16:04:41;13.10;99.90
3919;DHT22;1974;48.670;8.994;2023-05-16T16:07:07;13.10;99.90
3919;DHT22;1974;48.670;8.994;2023-05-16T16:09:35;13.10;99.90
3919;DHT22;1974;48.670;8.994;2023-05-16T16:12:02;13.10;99.90